Main page
METAR-TAF:

METAR-TAF

Airports :

Kédougou Airport

Kédougou, Senegal

latitude: 12-34N, longitude: 012-13W, elevation: 178 m

Current weather observation

The report was made 29 minutes ago, at 09:00 UTC
Wind 8 kt from the Southwest
Temperature 27°C
Humidity 84%
Pressure 1015 hPa
Visibility 10 km or more
Broken clouds at a height of 1500 ft

METAR: GOTK 170900Z 22008KT 9999 BKN015 27/24 Q1015

Time: 09:29 (09:29 UTC)


TAF: missing

Weather observations and forecasts of more than 4000 airports (METAR and TAF reports).

The available stations are represented by yellow and red dots on the map.

Hover mouse over dot to see the name of the station.

Then click to see weather observations and forecasts.

To change the map : click on the green buttons with a black cross to zoom in, on the green button with a dash to zoom out, or on the green arrows for adjacent maps.


METAR-TAF: